Time;durP1;ratioP1;P1;durP2;ratioP2;P2;SDS_P1;SDS_P2;PMS_P1;PMS_P2;Temp;Humidity;BMP_temperature;BMP_pressure;BME280_temperature;BME280_humidity;BME280_pressure;Samples;Min_cycle;Max_cycle;Signal;HPM_P1;HPM_P2
2024/03/06 00:01:52;;;;;;;4.78;4.10;;;;;;;20.25;39.25;101959.59;5082858;28;20060;-68
2024/03/06 00:04:18;;;;;;;4.57;4.15;;;;;;;20.35;39.13;101957.69;5086974;28;20052;-69
2024/03/06 00:06:44;;;;;;;4.88;4.28;;;;;;;20.21;39.14;101956.44;5081146;28;20105;-68
2024/03/06 00:09:09;;;;;;;4.78;4.22;;;;;;;20.19;39.36;101954.94;5080056;28;20040;-68
2024/03/06 00:11:38;;;;;;;4.97;4.47;;;;;;;20.31;38.88;101960.81;5049515;28;20028;-69
2024/03/06 00:14:05;;;;;;;5.20;4.20;;;;;;;20.08;39.47;101957.81;5078463;28;20104;-69
2024/03/06 00:16:33;;;;;;;5.30;4.03;;;;;;;20.17;39.28;101963.03;5075922;28;20056;-69
2024/03/06 00:18:59;;;;;;;4.88;3.85;;;;;;;20.18;39.28;101963.84;5085974;28;20472;-70
2024/03/06 00:21:25;;;;;;;5.13;4.07;;;;;;;20.26;38.96;101974.47;5075224;28;20033;-69
2024/03/06 00:23:50;;;;;;;4.75;4.00;;;;;;;20.22;39.12;101979.25;5083294;28;20035;-68
2024/03/06 00:26:16;;;;;;;4.75;4.35;;;;;;;20.24;39.05;101971.16;5085873;28;20040;-68
2024/03/06 00:28:41;;;;;;;6.13;4.15;;;;;;;20.17;39.19;101970.13;5077633;28;20028;-68
2024/03/06 00:31:07;;;;;;;4.88;4.07;;;;;;;20.07;39.33;101983.44;5087245;28;20104;-70
2024/03/06 00:33:33;;;;;;;4.85;4.10;;;;;;;20.12;39.17;101977.69;5090709;28;20139;-68
2024/03/06 00:35:58;;;;;;;4.65;4.10;;;;;;;20.17;39.15;101986.00;5076216;28;20464;-68
2024/03/06 00:38:24;;;;;;;6.60;4.15;;;;;;;20.11;39.22;101989.25;5082941;28;20047;-70
2024/03/06 00:40:49;;;;;;;4.55;3.78;;;;;;;20.16;39.17;101982.53;5075242;28;20100;-68
2024/03/06 00:43:15;;;;;;;5.07;4.57;;;;;;;20.13;39.05;101984.66;5086461;28;20105;-69
2024/03/06 00:45:40;;;;;;;5.05;4.03;;;;;;;20.08;39.26;101982.44;5087278;28;20044;-69
2024/03/06 00:48:06;;;;;;;5.50;4.38;;;;;;;20.00;39.21;101981.56;5082578;28;20044;-69
2024/03/06 00:50:32;;;;;;;4.63;4.22;;;;;;;19.99;38.97;101967.50;5087510;28;20055;-69
2024/03/06 00:52:58;;;;;;;5.25;4.40;;;;;;;20.02;39.13;101980.41;5099463;27;20044;-69
2024/03/06 00:55:23;;;;;;;5.78;4.30;;;;;;;20.05;39.14;101985.41;5087912;28;21106;-70
2024/03/06 00:57:49;;;;;;;4.30;3.90;;;;;;;19.98;39.20;101992.28;5079988;28;20031;-69
2024/03/06 01:00:15;;;;;;;5.32;4.38;;;;;;;20.05;39.26;101995.16;5085503;28;20059;-69
2024/03/06 01:02:41;;;;;;;4.43;4.03;;;;;;;19.97;39.08;101981.88;5085727;28;20504;-68
2024/03/06 01:05:08;;;;;;;4.53;4.03;;;;;;;19.94;39.12;101996.22;5074437;28;20074;-68
2024/03/06 01:07:34;;;;;;;4.53;4.13;;;;;;;19.92;39.09;101988.41;5086632;28;20048;-69
2024/03/06 01:10:01;;;;;;;4.63;3.97;;;;;;;20.02;39.15;101990.16;5089388;28;20050;-68
2024/03/06 01:12:26;;;;;;;4.78;4.18;;;;;;;19.96;39.16;101996.06;5083620;28;20154;-68
2024/03/06 01:14:52;;;;;;;4.70;4.15;;;;;;;19.93;39.17;101989.28;5088541;28;20776;-68
2024/03/06 01:17:18;;;;;;;4.90;4.38;;;;;;;19.96;39.05;101994.25;5069445;28;20128;-68
2024/03/06 01:19:44;;;;;;;5.05;4.22;;;;;;;19.93;39.15;101997.22;5084726;28;20063;-68
2024/03/06 01:22:10;;;;;;;4.63;4.03;;;;;;;19.93;39.09;102002.50;5091540;28;20105;-69
2024/03/06 01:24:36;;;;;;;4.28;3.70;;;;;;;19.96;39.05;102004.84;5092683;28;20054;-68
2024/03/06 01:27:02;;;;;;;5.32;4.32;;;;;;;19.92;39.11;102014.84;5085822;28;20376;-68
2024/03/06 01:29:31;;;;;;;5.13;4.63;;;;;;;19.92;38.99;101998.16;5085586;28;20071;-68
2024/03/06 01:31:58;;;;;;;4.80;4.30;;;;;;;19.83;39.12;101999.91;5084618;28;20056;-69
2024/03/06 01:34:24;;;;;;;4.55;4.00;;;;;;;19.83;39.23;102012.31;5068589;28;20036;-68
2024/03/06 01:36:50;;;;;;;5.40;4.35;;;;;;;19.92;39.17;102009.56;5085489;28;20039;-68
2024/03/06 01:39:16;;;;;;;4.85;4.35;;;;;;;19.79;39.16;102009.13;5091117;28;20041;-68
2024/03/06 01:41:51;;;;;;;5.22;3.90;;;;;;;19.81;39.19;101998.41;5091254;28;20039;-69
2024/03/06 01:44:18;;;;;;;4.50;4.10;;;;;;;19.72;39.30;102007.22;5086957;28;20530;-69
2024/03/06 01:46:44;;;;;;;4.78;4.20;;;;;;;19.76;39.17;102020.03;5081419;28;20035;-70
2024/03/06 01:49:13;;;;;;;4.72;4.13;;;;;;;19.72;39.33;102018.63;5085777;28;20415;-69
2024/03/06 01:51:39;;;;;;;5.32;4.45;;;;;;;19.72;39.26;102023.09;5090575;28;20024;-69
2024/03/06 01:54:05;;;;;;;4.72;4.30;;;;;;;19.85;39.00;102020.91;5079719;28;20193;-69
2024/03/06 01:56:32;;;;;;;4.53;4.07;;;;;;;19.71;39.13;102014.34;5083485;28;20270;-70
2024/03/06 01:58:59;;;;;;;5.03;4.18;;;;;;;19.81;39.11;102028.31;5079142;28;20059;-70
2024/03/06 02:01:25;;;;;;;4.57;4.13;;;;;;;19.68;39.30;102033.13;5093159;28;20056;-69
2024/03/06 02:03:51;;;;;;;3.95;3.55;;;;;;;19.74;39.20;102032.53;5092441;28;20043;-70
2024/03/06 02:06:19;;;;;;;4.57;4.00;;;;;;;19.71;39.10;102024.06;5086134;28;20032;-69
2024/03/06 02:08:48;;;;;;;4.28;3.88;;;;;;;19.78;39.00;102038.38;5085587;28;20044;-70
2024/03/06 02:11:15;;;;;;;5.03;4.15;;;;;;;19.75;39.12;102042.16;5085953;28;20039;-69
2024/03/06 02:13:41;;;;;;;5.05;4.05;;;;;;;19.69;39.00;102033.97;5083734;28;20044;-69
2024/03/06 02:16:07;;;;;;;4.50;4.10;;;;;;;19.75;39.11;102036.00;5085674;28;20054;-70
2024/03/06 02:18:33;;;;;;;4.57;4.15;;;;;;;19.76;39.01;102035.88;5069526;28;20028;-69
2024/03/06 02:20:58;;;;;;;4.90;4.05;;;;;;;19.58;39.36;102042.97;5086262;28;20079;-69
2024/03/06 02:23:24;;;;;;;5.45;3.78;;;;;;;19.71;39.08;102039.94;5085765;28;20044;-69
2024/03/06 02:25:50;;;;;;;4.20;3.75;;;;;;;19.65;39.13;102038.72;5078983;28;20602;-70
2024/03/06 02:28:16;;;;;;;5.53;3.90;;;;;;;19.68;39.14;102038.41;5080723;28;20658;-69
2024/03/06 02:30:42;;;;;;;5.45;4.10;;;;;;;19.67;39.20;102042.03;5090434;28;20036;-69
2024/03/06 02:33:09;;;;;;;4.90;4.30;;;;;;;19.72;38.97;102023.09;5086518;28;20051;-69
2024/03/06 02:35:35;;;;;;;5.05;4.32;;;;;;;19.81;38.84;102043.34;5067562;28;20257;-70
2024/03/06 02:38:04;;;;;;;5.00;3.72;;;;;;;19.56;39.20;102032.50;5083024;28;20043;-69
2024/03/06 02:40:30;;;;;;;4.30;3.83;;;;;;;19.70;39.03;102044.38;5069543;28;20104;-69
2024/03/06 02:42:56;;;;;;;5.18;3.90;;;;;;;19.75;38.97;102043.94;5086013;28;20647;-68
2024/03/06 02:45:22;;;;;;;4.57;4.07;;;;;;;19.67;39.16;102042.03;5089017;28;20039;-70
2024/03/06 02:47:47;;;;;;;6.30;4.53;;;;;;;19.66;39.31;102042.19;5078851;28;20396;-70
2024/03/06 02:50:13;;;;;;;4.28;3.85;;;;;;;19.71;39.07;102037.28;5090717;28;20046;-70
2024/03/06 02:52:39;;;;;;;4.20;3.80;;;;;;;19.67;39.08;102049.97;5086830;28;20048;-70
2024/03/06 02:55:05;;;;;;;4.32;3.90;;;;;;;19.67;39.16;102044.69;5090384;28;20040;-70
2024/03/06 02:57:31;;;;;;;4.70;3.90;;;;;;;19.65;39.09;102037.91;5078608;28;20044;-71
2024/03/06 02:59:58;;;;;;;4.65;4.18;;;;;;;19.59;39.13;102034.88;5089666;27;20032;-69
2024/03/06 03:02:23;;;;;;;4.55;3.97;;;;;;;19.66;39.01;102047.47;5092478;27;20038;-70
2024/03/06 03:04:52;;;;;;;4.18;3.78;;;;;;;19.64;39.13;102044.16;5074118;28;20032;-69
2024/03/06 03:07:19;;;;;;;4.28;3.65;;;;;;;19.63;39.24;102051.25;5081077;28;20732;-69
2024/03/06 03:09:45;;;;;;;4.05;3.65;;;;;;;19.46;39.22;102030.88;5090072;28;20732;-69
2024/03/06 03:12:11;;;;;;;6.05;3.85;;;;;;;19.60;39.29;102064.78;5086749;28;20039;-69
2024/03/06 03:14:37;;;;;;;4.55;4.05;;;;;;;19.58;39.15;102045.59;5077381;28;20044;-69
2024/03/06 03:17:05;;;;;;;4.88;3.92;;;;;;;19.69;38.98;102055.94;5085358;28;20059;-69
2024/03/06 03:19:31;;;;;;;4.32;3.70;;;;;;;19.74;38.89;102056.31;5086094;28;20040;-69
2024/03/06 03:21:57;;;;;;;4.63;4.15;;;;;;;19.57;39.09;102054.50;5082659;28;20141;-69
2024/03/06 03:24:25;;;;;;;4.70;3.85;;;;;;;19.61;39.08;102067.25;5070886;28;20040;-69
2024/03/06 03:26:51;;;;;;;4.80;3.97;;;;;;;19.70;39.11;102065.53;5080408;28;20044;-69
2024/03/06 03:29:17;;;;;;;4.15;3.38;;;;;;;19.59;39.30;102071.88;5089584;28;20048;-69
2024/03/06 03:31:43;;;;;;;4.80;3.80;;;;;;;19.57;39.26;102067.72;5085720;28;20353;-69
2024/03/06 03:34:08;;;;;;;4.80;3.95;;;;;;;19.57;39.25;102071.19;5085949;28;20041;-69
2024/03/06 03:36:34;;;;;;;4.90;4.15;;;;;;;19.61;39.16;102074.38;5047047;28;20040;-69
2024/03/06 03:39:00;;;;;;;4.38;3.85;;;;;;;19.65;39.06;102075.72;5101062;27;20436;-69
2024/03/06 03:41:26;;;;;;;4.40;3.80;;;;;;;19.61;39.05;102077.84;5082121;28;20036;-69
2024/03/06 03:43:51;;;;;;;4.40;4.00;;;;;;;19.63;39.13;102072.41;5089288;28;20035;-69
2024/03/06 03:46:17;;;;;;;5.03;4.05;;;;;;;19.66;39.02;102080.03;5077435;28;20048;-69
2024/03/06 03:48:43;;;;;;;3.90;3.50;;;;;;;19.47;39.38;102082.75;5087058;28;20039;-69
2024/03/06 03:51:08;;;;;;;4.07;3.30;;;;;;;19.50;39.26;102080.63;5084726;28;20036;-69
2024/03/06 03:53:34;;;;;;;4.38;3.85;;;;;;;19.51;39.26;102086.75;5089796;28;20105;-69
2024/03/06 03:56:00;;;;;;;4.00;3.53;;;;;;;19.53;39.02;102079.50;5074380;28;20036;-69
2024/03/06 03:58:25;;;;;;;4.78;3.92;;;;;;;19.64;38.85;102089.91;5061022;28;20059;-69
2024/03/06 04:00:55;;;;;;;4.60;4.00;;;;;;;19.58;39.12;102093.16;5077404;28;20040;-69
2024/03/06 04:03:21;;;;;;;4.35;3.60;;;;;;;19.54;39.14;102091.75;5086356;28;20050;-69
2024/03/06 04:05:49;;;;;;;4.88;4.30;;;;;;;19.49;39.21;102086.06;5077607;28;20047;-69
2024/03/06 04:08:15;;;;;;;4.50;3.78;;;;;;;19.58;39.12;102090.50;5087448;28;20416;-69
2024/03/06 04:10:46;;;;;;;4.88;4.13;;;;;;;19.53;39.15;102092.72;5076157;28;20058;-69
2024/03/06 04:13:13;;;;;;;4.28;3.80;;;;;;;19.50;39.07;102088.56;5072445;28;20046;-71
2024/03/06 04:15:38;;;;;;;6.25;3.58;;;;;;;19.55;38.96;102088.13;5024470;28;20445;-69
2024/03/06 04:18:04;;;;;;;3.97;3.55;;;;;;;19.84;38.67;102072.13;5059698;28;20047;-68
2024/03/06 04:20:30;;;;;;;4.53;3.88;;;;;;;19.95;38.75;102081.66;5056019;28;20380;-70
2024/03/06 04:22:56;;;;;;;4.65;4.05;;;;;;;20.01;38.82;102091.63;5073004;28;20037;-71
2024/03/06 04:25:23;;;;;;;4.45;4.05;;;;;;;20.23;38.53;102091.16;5071793;28;20047;-66
2024/03/06 04:27:49;;;;;;;4.00;3.50;;;;;;;20.32;38.24;102082.34;5074643;28;20072;-67
2024/03/06 04:30:14;;;;;;;5.13;3.80;;;;;;;20.28;38.50;102085.41;5074660;28;20184;-70
2024/03/06 04:32:40;;;;;;;4.25;3.80;;;;;;;20.30;38.47;102075.53;5024483;28;20123;-70
2024/03/06 04:35:07;;;;;;;5.85;3.42;;;;;;;20.29;38.65;102080.00;5069422;28;20045;-69
2024/03/06 04:37:33;;;;;;;4.68;3.55;;;;;;;20.46;38.31;102078.31;5025704;28;20048;-66
2024/03/06 04:39:58;;;;;;;4.47;3.83;;;;;;;20.52;38.22;102075.06;5072906;28;20120;-68
2024/03/06 04:42:25;;;;;;;4.30;3.90;;;;;;;20.98;37.34;102092.41;5076052;28;20041;-65
2024/03/06 04:44:51;;;;;;;4.35;3.70;;;;;;;21.59;36.63;102096.72;5028919;28;20492;-68
2024/03/06 04:47:16;;;;;;;5.20;3.58;;;;;;;22.79;34.48;102093.50;5047827;28;20043;-67
2024/03/06 04:49:42;;;;;;;4.10;3.22;;;;;;;23.87;32.86;102085.81;5030354;28;20322;-68
2024/03/06 04:52:09;;;;;;;4.03;3.63;;;;;;;24.75;31.53;102095.94;5069536;28;20039;-66
2024/03/06 04:54:34;;;;;;;3.90;3.50;;;;;;;25.14;30.96;102100.22;5049734;28;20078;-70
2024/03/06 04:57:00;;;;;;;3.63;3.33;;;;;;;25.66;30.30;102100.03;5042999;28;20044;-68
2024/03/06 04:59:26;;;;;;;4.13;3.33;;;;;;;25.40;30.78;102099.72;5051976;28;20044;-68
2024/03/06 05:01:52;;;;;;;3.92;3.50;;;;;;;25.53;30.45;102102.56;5075592;28;20051;-67
2024/03/06 05:04:18;;;;;;;3.45;3.15;;;;;;;25.16;31.19;102103.53;5010976;28;20159;-67
2024/03/06 05:06:43;;;;;;;3.58;3.08;;;;;;;24.95;31.64;102105.03;5075687;28;20047;-69
2024/03/06 05:09:11;;;;;;;3.95;3.20;;;;;;;24.66;32.26;102105.84;5007654;28;20453;-68
2024/03/06 05:11:39;;;;;;;4.57;3.20;;;;;;;24.48;32.35;102118.66;5070833;28;20040;-67
2024/03/06 05:14:05;;;;;;;4.15;3.63;;;;;;;24.21;32.74;102106.69;5005244;28;20070;-67
2024/03/06 05:16:30;;;;;;;4.28;3.33;;;;;;;24.22;32.88;102119.00;5056641;28;20618;-70
2024/03/06 05:18:56;;;;;;;4.28;3.50;;;;;;;24.02;33.19;102110.66;5013331;28;20024;-67
2024/03/06 05:21:24;;;;;;;4.22;3.45;;;;;;;23.90;33.39;102117.41;5070299;28;20463;-67
2024/03/06 05:23:50;;;;;;;3.65;3.17;;;;;;;23.77;33.58;102128.59;4989414;28;20036;-70
2024/03/06 05:26:16;;;;;;;3.90;3.40;;;;;;;23.65;33.92;102132.66;5052691;28;20128;-66
2024/03/06 05:28:41;;;;;;;4.60;3.38;;;;;;;23.55;34.16;102139.16;5010794;28;20028;-68
2024/03/06 05:31:18;;;;;;;3.95;3.42;;;;;;;23.41;34.26;102146.84;5081171;28;20115;-68
2024/03/06 05:33:45;;;;;;;3.25;2.92;;;;;;;23.29;34.61;102139.41;5028766;28;20074;-67
2024/03/06 05:36:12;;;;;;;3.83;3.40;;;;;;;23.16;34.88;102151.41;5073577;28;20375;-69
2024/03/06 05:38:38;;;;;;;4.43;3.70;;;;;;;23.11;35.19;102155.56;5024158;28;20036;-68
2024/03/06 05:41:04;;;;;;;4.22;3.50;;;;;;;23.05;34.99;102157.06;5074639;28;20478;-68
2024/03/06 05:43:30;;;;;;;4.20;3.35;;;;;;;23.06;35.16;102158.75;5026029;28;20035;-70
2024/03/06 05:45:55;;;;;;;4.13;3.60;;;;;;;22.99;35.28;102168.38;5071992;28;20040;-70
2024/03/06 05:48:21;;;;;;;3.95;3.55;;;;;;;22.96;35.26;102168.69;5022706;28;20044;-66
2024/03/06 05:50:46;;;;;;;3.85;3.22;;;;;;;22.92;35.26;102164.72;5073147;28;20039;-72
2024/03/06 05:53:12;;;;;;;4.28;3.50;;;;;;;22.85;35.50;102179.69;5014584;28;20561;-69
2024/03/06 05:55:37;;;;;;;4.38;3.30;;;;;;;22.86;35.81;102184.84;5076972;28;20041;-74
2024/03/06 05:58:04;;;;;;;3.40;2.95;;;;;;;22.83;35.70;102187.81;5025922;28;21385;-70
2024/03/06 06:00:30;;;;;;;4.00;3.60;;;;;;;22.79;35.66;102189.09;5077880;28;20043;-72
2024/03/06 06:02:56;;;;;;;3.10;2.80;;;;;;;22.70;35.97;102198.06;5028296;28;20047;-69
2024/03/06 06:05:22;;;;;;;3.50;3.20;;;;;;;22.63;35.75;102186.47;5073474;28;20559;-69
2024/03/06 06:07:48;;;;;;;3.63;3.22;;;;;;;22.67;36.23;102200.25;5054467;28;20040;-69
2024/03/06 06:10:14;;;;;;;3.85;3.22;;;;;;;22.60;36.05;102200.06;5053903;28;20047;-68
2024/03/06 06:12:41;;;;;;;4.25;3.42;;;;;;;22.59;36.31;102204.53;5029378;28;20041;-71
2024/03/06 06:15:07;;;;;;;3.97;3.17;;;;;;;22.57;36.04;102214.50;5073503;28;20128;-70
2024/03/06 06:17:33;;;;;;;4.53;3.20;;;;;;;22.60;36.22;102203.53;5026777;28;20060;-65
2024/03/06 06:19:59;;;;;;;3.50;3.20;;;;;;;22.55;36.27;102211.19;5071216;28;20048;-66
2024/03/06 06:22:27;;;;;;;3.97;3.05;;;;;;;22.58;36.28;102213.50;5023135;28;21756;-67
2024/03/06 06:24:55;;;;;;;3.53;3.15;;;;;;;22.50;36.24;102205.53;5073721;28;20115;-66
2024/03/06 06:27:20;;;;;;;3.60;3.20;;;;;;;22.53;36.49;102220.31;5033548;28;21373;-67
2024/03/06 06:29:46;;;;;;;3.13;2.83;;;;;;;22.53;36.50;102220.31;5076683;28;20036;-69
2024/03/06 06:32:12;;;;;;;4.10;3.17;;;;;;;22.64;36.01;102225.31;5023109;28;20035;-66
2024/03/06 06:34:37;;;;;;;3.80;3.03;;;;;;;22.65;35.99;102218.16;5073456;28;20074;-67
2024/03/06 06:37:03;;;;;;;3.80;3.10;;;;;;;22.67;35.94;102219.66;5034246;28;20062;-69
2024/03/06 06:39:29;;;;;;;5.57;3.33;;;;;;;22.63;35.88;102210.38;5062240;28;20045;-66
2024/03/06 06:41:55;;;;;;;3.53;3.22;;;;;;;22.63;36.34;102228.97;5049970;28;20239;-68
2024/03/06 06:44:20;;;;;;;4.22;3.40;;;;;;;22.58;36.28;102231.25;5037801;28;20372;-68
2024/03/06 06:46:46;;;;;;;4.18;3.78;;;;;;;22.55;36.19;102244.84;5074105;28;20040;-66
2024/03/06 06:49:11;;;;;;;3.40;3.10;;;;;;;22.53;36.68;102242.38;5023531;28;20106;-67
2024/03/06 06:51:37;;;;;;;3.80;3.40;;;;;;;22.55;36.58;102247.50;5072170;28;20044;-68
2024/03/06 06:54:04;;;;;;;4.35;3.63;;;;;;;22.55;36.54;102243.03;5028469;28;20609;-70
2024/03/06 06:56:29;;;;;;;4.15;3.63;;;;;;;22.91;36.08;102259.53;5074199;28;20563;-74
2024/03/06 06:58:56;;;;;;;3.58;3.25;;;;;;;22.79;36.39;102255.50;5012747;28;20040;-67
2024/03/06 07:01:22;;;;;;;6.07;3.53;;;;;;;22.22;36.81;102255.38;5072318;28;20055;-67
2024/03/06 07:03:47;;;;;;;4.05;3.33;;;;;;;22.64;36.71;102261.66;5073889;28;20032;-67
2024/03/06 07:06:13;;;;;;;3.58;3.28;;;;;;;22.69;36.61;102262.81;5073349;28;20491;-68
2024/03/06 07:08:39;;;;;;;4.03;3.38;;;;;;;22.59;36.90;102265.59;5070950;28;20161;-68
2024/03/06 07:11:05;;;;;;;3.42;3.08;;;;;;;22.44;37.02;102264.59;5073456;28;20049;-67
2024/03/06 07:13:30;;;;;;;4.72;3.70;;;;;;;22.35;36.97;102270.84;5072408;28;20059;-67
2024/03/06 07:15:56;;;;;;;4.10;3.60;;;;;;;22.33;37.00;102267.53;5059310;28;20028;-67
2024/03/06 07:18:22;;;;;;;3.72;3.42;;;;;;;22.18;37.58;102269.16;5044829;28;20044;-67
2024/03/06 07:20:47;;;;;;;3.30;3.00;;;;;;;22.17;37.44;102268.31;5083160;28;20379;-67
2024/03/06 07:23:13;;;;;;;4.03;3.38;;;;;;;22.10;37.49;102275.25;5075387;28;20037;-67
2024/03/06 07:25:39;;;;;;;5.47;3.65;;;;;;;22.02;37.77;102278.66;5073425;28;20422;-67
2024/03/06 07:28:05;;;;;;;3.90;3.38;;;;;;;21.94;37.64;102281.28;5045708;28;20684;-67
2024/03/06 07:30:30;;;;;;;3.80;3.45;;;;;;;21.83;37.90;102281.56;5075756;28;20059;-67
2024/03/06 07:32:57;;;;;;;4.40;3.70;;;;;;;21.77;38.00;102281.38;5073712;28;20642;-67
2024/03/06 07:35:23;;;;;;;4.05;3.65;;;;;;;21.70;38.07;102281.16;5076116;28;20040;-67
2024/03/06 07:37:49;;;;;;;4.53;3.58;;;;;;;21.61;38.28;102287.41;5072626;28;20035;-66
2024/03/06 07:40:14;;;;;;;3.90;3.42;;;;;;;21.57;38.07;102284.25;5067455;28;20467;-67
2024/03/06 07:42:40;;;;;;;3.58;3.20;;;;;;;21.57;38.38;102294.00;5074288;28;20056;-68
2024/03/06 07:45:08;;;;;;;4.03;3.33;;;;;;;21.51;38.39;102300.75;5073189;28;20059;-68
2024/03/06 07:47:34;;;;;;;4.07;3.67;;;;;;;21.46;38.21;102303.03;5072252;28;20040;-67
2024/03/06 07:49:59;;;;;;;4.80;4.03;;;;;;;21.35;38.47;102296.16;5073574;28;20066;-67
2024/03/06 07:52:25;;;;;;;4.38;3.40;;;;;;;21.50;38.60;102315.00;5073490;28;20460;-67
2024/03/06 07:54:51;;;;;;;3.92;3.50;;;;;;;21.50;38.20;102299.09;5069146;28;20036;-67
2024/03/06 07:57:17;;;;;;;4.75;3.50;;;;;;;21.82;37.48;102308.25;5057035;28;20044;-67
2024/03/06 07:59:43;;;;;;;4.68;3.95;;;;;;;21.99;37.05;102312.63;5072811;28;20079;-68
2024/03/06 08:02:09;;;;;;;4.55;3.70;;;;;;;22.05;37.37;102316.50;5072010;28;20123;-67
2024/03/06 08:04:36;;;;;;;3.97;3.58;;;;;;;22.10;37.17;102323.03;5054130;28;20706;-67
2024/03/06 08:07:02;;;;;;;3.85;3.42;;;;;;;22.01;37.07;102322.09;5055930;28;20063;-66
2024/03/06 08:09:28;;;;;;;4.43;3.60;;;;;;;21.97;37.08;102328.72;5054934;28;20036;-66
2024/03/06 08:11:54;;;;;;;4.50;3.50;;;;;;;21.77;37.44;102313.19;5072914;28;20130;-66
2024/03/06 08:14:20;;;;;;;3.92;3.53;;;;;;;21.58;37.86;102323.00;5069440;28;20152;-67
2024/03/06 08:16:46;;;;;;;4.50;3.70;;;;;;;21.67;37.64;102337.97;5071000;28;20048;-68
2024/03/06 08:19:11;;;;;;;5.05;3.75;;;;;;;21.57;38.09;102337.25;5072936;28;20097;-66
2024/03/06 08:21:37;;;;;;;4.43;3.83;;;;;;;21.53;37.97;102343.00;5051024;28;20041;-66
2024/03/06 08:24:03;;;;;;;4.13;3.55;;;;;;;21.52;37.89;102339.50;5072651;28;20044;-68
2024/03/06 08:26:28;;;;;;;5.15;3.88;;;;;;;21.41;38.12;102343.25;5073108;28;20120;-66
2024/03/06 08:28:54;;;;;;;4.90;3.80;;;;;;;21.37;39.10;102341.91;5071344;28;20043;-67
2024/03/06 08:31:21;;;;;;;4.75;3.95;;;;;;;21.36;38.17;102355.28;5075129;28;20036;-66
2024/03/06 08:33:47;;;;;;;4.32;3.78;;;;;;;21.33;38.39;102348.47;5073296;28;20052;-68
2024/03/06 08:36:13;;;;;;;4.50;3.75;;;;;;;21.28;38.21;102352.56;5055828;28;20043;-67
2024/03/06 08:38:40;;;;;;;4.85;4.13;;;;;;;21.16;38.25;102362.53;5057267;28;20044;-66
2024/03/06 08:41:06;;;;;;;4.90;4.18;;;;;;;21.23;38.23;102360.97;5073892;28;20106;-66
2024/03/06 08:43:32;;;;;;;4.28;3.70;;;;;;;21.11;38.46;102365.66;5058684;28;22260;-66
2024/03/06 08:45:58;;;;;;;4.07;3.67;;;;;;;21.28;38.10;102371.97;5069787;28;20040;-67
2024/03/06 08:48:23;;;;;;;4.15;3.75;;;;;;;21.08;38.42;102358.00;5071164;28;20487;-67
2024/03/06 08:50:50;;;;;;;4.63;3.80;;;;;;;20.85;38.78;102351.50;5073220;28;20318;-67
2024/03/06 08:53:16;;;;;;;4.45;4.05;;;;;;;20.96;38.58;102374.25;5077118;28;20045;-66
2024/03/06 08:55:42;;;;;;;4.57;3.80;;;;;;;20.90;38.89;102377.50;5068482;28;20061;-66
2024/03/06 08:58:08;;;;;;;5.28;3.75;;;;;;;20.93;38.75;102375.38;5070375;28;20039;-66
2024/03/06 09:00:34;;;;;;;4.57;3.88;;;;;;;20.94;38.48;102379.69;5070211;28;20620;-66
2024/03/06 09:03:00;;;;;;;3.90;3.50;;;;;;;20.91;38.42;102377.34;5064005;28;20043;-67
2024/03/06 09:05:26;;;;;;;4.78;3.50;;;;;;;20.95;38.54;102376.06;5077422;28;20094;-66
2024/03/06 09:07:52;;;;;;;4.90;4.40;;;;;;;21.03;38.43;102383.28;5063246;28;20032;-67
2024/03/06 09:10:19;;;;;;;4.97;3.90;;;;;;;20.86;38.57;102378.81;5077068;28;20032;-66
2024/03/06 09:12:45;;;;;;;4.78;4.03;;;;;;;20.88;38.80;102382.13;5069201;28;20103;-66
2024/03/06 09:15:11;;;;;;;4.30;3.42;;;;;;;20.82;38.81;102386.19;5071145;28;20047;-66
2024/03/06 09:17:37;;;;;;;5.32;3.95;;;;;;;20.84;38.62;102386.06;5079522;28;20119;-66
2024/03/06 09:20:10;;;;;;;4.28;3.58;;;;;;;20.95;38.49;102397.25;5057898;28;20038;-67
2024/03/06 09:22:42;;;;;;;4.18;3.78;;;;;;;20.83;38.65;102395.81;5073163;28;20048;-66
2024/03/06 09:25:08;;;;;;;4.55;3.90;;;;;;;20.87;38.28;102394.53;5073138;28;20412;-66
2024/03/06 09:27:33;;;;;;;5.07;4.10;;;;;;;20.83;38.46;102400.28;5077016;28;20039;-68
2024/03/06 09:29:59;;;;;;;4.93;4.25;;;;;;;20.70;38.67;102387.38;5072339;28;20054;-68
2024/03/06 09:32:26;;;;;;;4.65;4.00;;;;;;;20.77;38.53;102407.81;5073287;28;20045;-67
2024/03/06 09:34:52;;;;;;;4.68;4.20;;;;;;;20.70;38.55;102412.03;5078455;28;20488;-67
2024/03/06 09:37:18;;;;;;;4.65;4.10;;;;;;;20.66;38.62;102408.03;5074719;28;20037;-66
2024/03/06 09:39:47;;;;;;;4.90;4.22;;;;;;;20.81;38.32;102418.94;5061873;28;20044;-67
2024/03/06 09:42:13;;;;;;;5.03;4.40;;;;;;;20.81;38.36;102413.63;5064810;28;20035;-68
2024/03/06 09:44:39;;;;;;;5.20;4.30;;;;;;;20.81;38.27;102427.72;5079364;28;20032;-66
2024/03/06 09:47:06;;;;;;;4.65;4.07;;;;;;;20.71;38.57;102428.75;5076742;28;20773;-67
2024/03/06 09:49:34;;;;;;;5.25;4.38;;;;;;;20.71;38.42;102416.34;5057655;28;20079;-66
2024/03/06 09:52:00;;;;;;;5.10;4.00;;;;;;;20.69;38.50;102423.63;5075215;28;20036;-66
2024/03/06 09:54:26;;;;;;;4.65;4.10;;;;;;;20.68;38.54;102424.59;5072120;28;20047;-67
2024/03/06 09:56:52;;;;;;;5.18;4.68;;;;;;;20.73;38.44;102434.72;5073257;28;20037;-67
2024/03/06 09:59:18;;;;;;;4.50;4.10;;;;;;;20.68;38.09;102427.25;5059549;28;20028;-67
2024/03/06 10:01:50;;;;;;;5.07;4.32;;;;;;;20.54;38.50;102432.19;5074749;28;20048;-67
2024/03/06 10:04:28;;;;;;;5.13;4.63;;;;;;;20.60;38.35;102445.66;5077304;28;20040;-67
2024/03/06 10:06:58;;;;;;;4.70;4.20;;;;;;;20.65;38.42;102446.06;5073737;28;20518;-66
2024/03/06 10:09:24;;;;;;;;;;;;;;;20.48;38.85;102450.31;5061838;28;20109;-67
2024/03/06 10:11:52;;;;;;;5.28;4.72;;;;;;;20.52;38.57;102451.69;5073519;28;19920;-67
2024/03/06 10:14:18;;;;;;;5.40;4.63;;;;;;;20.56;38.58;102452.22;5076265;28;20473;-66
2024/03/06 10:16:56;;;;;;;4.90;4.18;;;;;;;20.51;38.77;102449.19;5074308;28;20032;-66
2024/03/06 10:19:22;;;;;;;5.28;4.57;;;;;;;20.56;38.75;102465.47;5072895;28;20511;-66
2024/03/06 10:21:51;;;;;;;5.05;4.30;;;;;;;20.67;38.37;102457.34;5072394;28;20035;-66
2024/03/06 10:24:23;;;;;;;5.30;4.50;;;;;;;20.59;38.53;102453.75;5076553;28;20044;-66
2024/03/06 10:26:58;;;;;;;6.28;4.90;;;;;;;20.65;38.21;102459.31;5071617;28;20136;-66
2024/03/06 10:29:25;;;;;;;5.93;4.35;;;;;;;20.58;38.53;102463.50;5072835;28;20043;-66
2024/03/06 10:31:52;;;;;;;6.55;4.47;;;;;;;20.45;38.42;102460.31;5070017;28;20032;-65
2024/03/06 10:34:20;;;;;;;5.35;4.85;;;;;;;20.65;38.35;102461.13;5073635;28;20029;-67
2024/03/06 10:36:45;;;;;;;5.95;4.70;;;;;;;20.46;38.62;102464.63;5068570;28;20795;-67
2024/03/06 10:39:15;;;;;;;5.00;4.50;;;;;;;20.61;38.38;102472.94;5075394;28;20040;-67
2024/03/06 10:41:41;;;;;;;4.90;4.40;;;;;;;20.46;38.75;102470.75;5072239;28;20459;-72
2024/03/06 10:44:14;;;;;;;6.75;4.72;;;;;;;20.60;38.24;102466.81;5072765;28;20040;-71
2024/03/06 10:46:45;;;;;;;6.53;4.88;;;;;;;20.85;38.05;102475.09;5069089;28;20056;-71
2024/03/06 10:49:12;;;;;;;5.25;4.60;;;;;;;21.09;37.54;102475.38;5075246;28;20040;-72
2024/03/06 10:51:43;;;;;;;5.00;4.50;;;;;;;21.45;37.08;102478.94;5072688;28;20036;-71
2024/03/06 10:54:10;;;;;;;5.38;4.82;;;;;;;21.95;36.28;102487.19;5070811;28;20130;-72
2024/03/06 10:56:41;;;;;;;5.53;4.30;;;;;;;22.25;35.79;102472.66;5077813;28;20136;-73
2024/03/06 10:59:11;;;;;;;4.90;4.05;;;;;;;22.36;35.34;102479.53;5070958;28;20676;-73
2024/03/06 11:01:37;;;;;;;5.40;4.47;;;;;;;22.21;35.60;102470.47;5075897;28;20059;-72
2024/03/06 11:04:05;;;;;;;5.65;4.65;;;;;;;22.54;35.46;102490.94;5076265;28;20066;-73
2024/03/06 11:06:31;;;;;;;4.93;4.40;;;;;;;22.24;36.18;102496.69;5071553;28;20041;-74
2024/03/06 11:08:57;;;;;;;6.25;4.97;;;;;;;22.15;36.38;102485.22;5056245;28;20043;-74
2024/03/06 11:11:23;;;;;;;6.55;4.32;;;;;;;22.08;36.21;102492.09;5076205;28;20089;-72
2024/03/06 11:13:50;;;;;;;5.25;4.05;;;;;;;22.08;36.56;102499.22;5072872;28;20051;-73
2024/03/06 11:16:15;;;;;;;5.65;4.28;;;;;;;21.87;36.66;102496.88;5078249;28;20031;-72
2024/03/06 11:18:42;;;;;;;5.53;4.05;;;;;;;21.86;36.91;102504.00;5066689;28;20054;-72
2024/03/06 11:21:11;;;;;;;5.47;4.45;;;;;;;21.68;37.05;102498.72;5057354;28;20583;-72